Time;durP1;ratioP1;P1;durP2;ratioP2;P2;SDS_P1;SDS_P2;PMS_P1;PMS_P2;Temp;Humidity;BMP_temperature;BMP_pressure;BME280_temperature;BME280_humidity;BME280_pressure;Samples;Min_cycle;Max_cycle;Signal;HPM_P1;HPM_P2
2022/07/30 00:02:24;;;;;;;10.50;5.15;;;14.60;99.90;;;;;;5092613;28;20086;-86
2022/07/30 00:04:49;;;;;;;8.65;5.20;;;14.50;99.90;;;;;;5075125;28;20091;-86
2022/07/30 00:07:15;;;;;;;8.30;5.55;;;14.40;99.90;;;;;;5057998;28;20063;-87
2022/07/30 00:09:41;;;;;;;7.07;5.05;;;14.40;99.90;;;;;;5092794;28;20555;-86
2022/07/30 00:12:07;;;;;;;9.23;5.03;;;14.30;99.90;;;;;;5092438;28;20048;-86
2022/07/30 00:14:36;;;;;;;10.32;5.40;;;14.30;99.90;;;;;;5092490;28;20558;-86
2022/07/30 00:17:03;;;;;;;11.10;5.65;;;14.20;99.90;;;;;;5075659;28;20139;-87
2022/07/30 00:19:29;;;;;;;8.70;5.32;;;14.20;99.90;;;;;;5096972;28;20047;-86
2022/07/30 00:21:55;;;;;;;8.38;5.38;;;14.10;99.90;;;;;;5096511;28;20495;-86
2022/07/30 00:24:21;;;;;;;10.38;5.78;;;14.10;99.90;;;;;;5096550;28;20051;-86
2022/07/30 00:26:48;;;;;;;8.10;5.88;;;14.10;99.90;;;;;;5078506;28;20048;-87
2022/07/30 00:29:32;;;;;;;12.10;5.97;;;14.10;99.90;;;;;;5096212;28;20044;-86
2022/07/30 00:31:58;;;;;;;12.65;5.72;;;14.00;99.90;;;;;;5078387;28;20552;-86
2022/07/30 00:34:23;;;;;;;10.48;6.05;;;14.10;99.90;;;;;;5078240;28;20126;-86
2022/07/30 00:36:49;;;;;;;11.98;5.82;;;14.00;99.90;;;;;;5078415;28;20058;-87
2022/07/30 00:39:15;;;;;;;8.57;5.97;;;14.00;99.90;;;;;;5096241;28;20047;-86
2022/07/30 00:42:01;;;;;;;13.98;6.30;;;13.90;99.90;;;;;;5078157;28;20446;-86
2022/07/30 00:44:28;;;;;;;10.77;5.97;;;13.90;99.90;;;;;;5096284;28;20040;-86
2022/07/30 00:46:55;;;;;;;9.13;5.85;;;13.80;99.90;;;;;;5078331;28;20056;-86
2022/07/30 00:49:21;;;;;;;13.70;6.22;;;13.80;99.90;;;;;;5078302;28;20078;-87
2022/07/30 00:51:47;;;;;;;11.90;5.95;;;13.80;99.90;;;;;;5078095;28;20489;-87
2022/07/30 00:54:14;;;;;;;14.80;6.30;;;13.80;99.90;;;;;;5077636;28;20048;-86
2022/07/30 00:56:42;;;;;;;7.03;6.25;;;13.80;99.90;;;;;;5095718;28;20493;-87
2022/07/30 00:59:08;;;;;;;7.10;6.05;;;13.80;99.90;;;;;;5096188;28;20048;-86
2022/07/30 01:01:34;;;;;;;10.35;6.72;;;13.80;99.90;;;;;;5078064;28;20149;-87
2022/07/30 01:04:00;;;;;;;12.23;6.05;;;13.70;99.90;;;;;;5077782;28;20405;-86
2022/07/30 01:06:26;;;;;;;8.25;5.45;;;13.70;99.90;;;;;;5077935;28;20473;-86
2022/07/30 01:08:53;;;;;;;6.95;6.00;;;13.70;99.90;;;;;;5095601;28;20378;-86
2022/07/30 01:11:19;;;;;;;12.55;6.50;;;13.70;99.90;;;;;;5061477;28;20142;-85
2022/07/30 01:13:45;;;;;;;7.18;5.68;;;13.70;99.90;;;;;;5095681;28;20040;-86
2022/07/30 01:16:11;;;;;;;9.45;6.07;;;13.70;99.90;;;;;;5095616;28;20436;-86
2022/07/30 01:21:29;;;;;;;9.77;6.38;;;13.80;99.90;;;;;;5077614;28;20043;-86
2022/07/30 01:24:06;;;;;;;7.30;5.20;;;13.80;99.90;;;;;;5061506;28;20050;-86
2022/07/30 01:26:33;;;;;;;10.57;6.20;;;13.70;99.90;;;;;;5077650;28;20093;-86
2022/07/30 01:29:00;;;;;;;9.90;6.15;;;13.90;99.90;;;;;;5095155;28;20055;-86
2022/07/30 01:31:27;;;;;;;12.63;6.10;;;13.70;99.90;;;;;;5095133;28;20192;-86
2022/07/30 01:33:55;;;;;;;9.10;6.50;;;13.60;99.90;;;;;;5059902;28;20050;-86
2022/07/30 01:36:22;;;;;;;13.43;6.38;;;13.50;99.90;;;;;;5094995;28;20067;-86
2022/07/30 01:38:50;;;;;;;10.40;6.88;;;13.50;99.90;;;;;;5077269;28;20052;-86
2022/07/30 01:41:18;;;;;;;9.27;6.63;;;13.40;99.90;;;;;;5095240;28;20130;-86
2022/07/30 01:43:45;;;;;;;9.40;7.13;;;13.30;99.90;;;;;;5095019;28;20047;-86
2022/07/30 01:46:12;;;;;;;11.38;6.28;;;13.40;99.90;;;;;;5077068;28;20127;-86
2022/07/30 01:48:41;;;;;;;9.27;6.47;;;13.30;99.90;;;;;;5095022;28;20443;-88
2022/07/30 01:51:11;;;;;;;10.57;6.97;;;13.30;99.90;;;;;;5094648;28;20060;-86
2022/07/30 01:53:39;;;;;;;12.13;7.60;;;13.20;99.90;;;;;;5076864;28;20392;-85
2022/07/30 01:56:08;;;;;;;9.98;7.13;;;13.10;99.90;;;;;;5095155;28;20124;-86
2022/07/30 01:58:37;;;;;;;11.57;7.47;;;13.10;99.90;;;;;;5094695;28;20059;-88
2022/07/30 02:01:03;;;;;;;9.32;6.88;;;13.10;99.90;;;;;;5094871;28;20044;-86
2022/07/30 02:03:29;;;;;;;11.35;6.78;;;13.10;99.90;;;;;;5076501;28;20473;-88
2022/07/30 02:06:01;;;;;;;12.20;7.28;;;13.00;99.90;;;;;;5043630;28;20055;-86
2022/07/30 02:08:37;;;;;;;15.73;8.40;;;13.00;99.90;;;;;;5094724;28;20087;-87
2022/07/30 02:11:08;;;;;;;8.63;7.45;;;13.20;99.90;;;;;;5094621;28;20048;-86
2022/07/30 02:13:35;;;;;;;;;;;13.00;99.90;;;;;;5077197;28;20048;-86
2022/07/30 02:16:07;;;;;;;11.13;7.70;;;12.90;99.90;;;;;;5076563;28;20264;-86
2022/07/30 02:18:55;;;;;;;11.27;8.93;;;13.00;99.90;;;;;;5094692;28;20044;-86
2022/07/30 02:21:23;;;;;;;12.40;9.52;;;13.00;99.90;;;;;;5094282;28;20556;-86
2022/07/30 02:23:50;;;;;;;18.08;11.23;;;13.10;99.90;;;;;;5094336;28;20392;-86
2022/07/30 02:26:19;;;;;;;37.83;11.95;;;12.90;99.90;;;;;;5094254;28;20401;-86
2022/07/30 02:28:50;;;;;;;18.10;11.75;;;13.20;99.90;;;;;;5076348;28;20056;-87
2022/07/30 02:31:20;;;;;;;50.25;14.02;;;13.10;99.90;;;;;;5094332;28;20052;-86
2022/07/30 02:33:49;;;;;;;34.20;14.80;;;13.20;99.90;;;;;;5076070;28;20044;-87
2022/07/30 02:36:17;;;;;;;23.13;11.82;;;13.30;99.90;;;;;;5076033;28;20044;-86
2022/07/30 02:38:44;;;;;;;24.00;12.57;;;13.20;99.90;;;;;;5094069;28;20051;-86
2022/07/30 02:41:12;;;;;;;48.75;14.85;;;13.30;99.90;;;;;;5093110;28;20112;-86
2022/07/30 02:43:39;;;;;;;19.38;10.48;;;13.30;99.90;;;;;;5093685;28;20044;-87
2022/07/30 02:46:08;;;;;;;53.45;14.50;;;13.40;99.90;;;;;;5094004;28;20044;-86
2022/07/30 02:48:37;;;;;;;61.88;13.10;;;13.40;99.90;;;;;;5093749;28;20058;-90
2022/07/30 02:51:04;;;;;;;72.30;14.98;;;13.40;99.90;;;;;;5075212;28;20059;-86
2022/07/30 02:53:31;;;;;;;64.38;12.25;;;13.50;99.90;;;;;;5075529;28;20040;-86
2022/07/30 02:55:58;;;;;;;58.17;13.15;;;13.60;99.90;;;;;;5093720;28;20105;-87
2022/07/30 02:58:26;;;;;;;170.27;18.67;;;13.70;99.90;;;;;;5075333;28;20055;-86
2022/07/30 03:00:53;;;;;;;128.02;16.17;;;13.70;99.90;;;;;;5093597;28;20052;-86
2022/07/30 03:03:19;;;;;;;54.75;13.75;;;13.70;99.90;;;;;;5075296;28;20044;-86
2022/07/30 03:05:48;;;;;;;114.05;17.00;;;13.80;99.90;;;;;;5093486;28;20052;-86
2022/07/30 03:08:15;;;;;;;91.85;12.90;;;13.80;99.90;;;;;;5075579;28;20052;-87
2022/07/30 03:10:43;;;;;;;100.13;16.23;;;13.80;99.90;;;;;;5075579;28;20109;-87
2022/07/30 03:13:10;;;;;;;67.80;12.85;;;13.80;99.90;;;;;;5075372;28;20059;-86
2022/07/30 03:15:40;;;;;;;74.75;16.48;;;13.80;99.90;;;;;;5093539;28;20048;-86
2022/07/30 03:18:11;;;;;;;77.95;18.50;;;13.80;99.90;;;;;;5093649;28;20375;-86
2022/07/30 03:20:37;;;;;;;;;;;13.90;99.90;;;;;;5074972;28;20086;-87
2022/07/30 03:23:05;;;;;;;87.72;15.88;;;13.60;99.90;;;;;;5093252;28;19916;-86
2022/07/30 03:25:31;;;;;;;93.07;14.40;;;13.70;99.90;;;;;;5092871;28;20050;-87
2022/07/30 03:27:59;;;;;;;16.35;12.00;;;13.80;99.90;;;;;;5093294;28;20052;-87
2022/07/30 03:30:26;;;;;;;30.95;13.02;;;13.80;99.90;;;;;;5093461;28;20071;-86
2022/07/30 03:32:52;;;;;;;29.35;13.52;;;13.80;99.90;;;;;;5075243;28;20126;-86
2022/07/30 03:35:20;;;;;;;26.50;13.55;;;13.80;99.90;;;;;;5075077;28;20402;-86
2022/07/30 03:37:47;;;;;;;65.85;15.35;;;13.80;99.90;;;;;;5093012;28;20055;-86
2022/07/30 03:40:13;;;;;;;39.40;13.48;;;13.90;99.90;;;;;;5092791;28;20530;-86
2022/07/30 03:42:40;;;;;;;53.70;13.32;;;13.90;99.90;;;;;;5093177;28;20048;-86
2022/07/30 03:45:07;;;;;;;71.80;13.95;;;14.00;99.90;;;;;;5074457;28;20086;-89
2022/07/30 03:47:37;;;;;;;51.70;12.35;;;14.00;99.90;;;;;;5058596;28;20444;-85
2022/07/30 03:50:04;;;;;;;94.32;14.77;;;14.10;99.90;;;;;;5074979;28;20044;-87
2022/07/30 03:52:33;;;;;;;152.85;19.13;;;14.10;99.90;;;;;;5074733;28;20048;-86
2022/07/30 03:55:00;;;;;;;87.82;14.32;;;14.20;99.90;;;;;;5092520;28;20135;-86
2022/07/30 03:57:27;;;;;;;93.80;13.65;;;14.20;99.90;;;;;;5092985;28;20093;-87
2022/07/30 03:59:52;;;;;;;28.33;12.35;;;14.20;99.90;;;;;;5092897;28;20492;-86
2022/07/30 04:02:18;;;;;;;93.75;15.32;;;14.20;99.90;;;;;;5074481;28;20054;-86
2022/07/30 04:04:44;;;;;;;143.45;20.70;;;14.20;99.90;;;;;;5093023;28;20059;-87
2022/07/30 04:07:10;;;;;;;80.63;15.63;;;14.30;99.90;;;;;;5092749;28;20554;-88
2022/07/30 04:09:35;;;;;;;61.45;14.95;;;14.30;99.90;;;;;;5092570;28;20055;-87
2022/07/30 04:12:01;;;;;;;48.25;12.52;;;14.50;99.90;;;;;;5093011;28;20048;-86
2022/07/30 04:14:44;;;;;;;67.40;12.65;;;14.30;99.90;;;;;;5074728;28;20050;-86
2022/07/30 04:17:20;;;;;;;53.60;9.48;;;14.40;99.90;;;;;;5092769;28;20047;-87
2022/07/30 04:19:51;;;;;;;16.65;9.15;;;14.40;99.90;;;;;;5074983;28;20473;-87
2022/07/30 04:22:25;;;;;;;65.45;12.93;;;14.40;99.90;;;;;;5092910;28;20098;-87
2022/07/30 04:24:52;;;;;;;97.45;14.82;;;14.50;99.90;;;;;;5092764;28;20056;-87
2022/07/30 04:27:18;;;;;;;74.18;12.98;;;14.50;99.90;;;;;;5074891;28;20500;-86
2022/07/30 04:29:44;;;;;;;84.65;11.77;;;14.60;99.90;;;;;;5074846;28;20053;-86
2022/07/30 04:32:10;;;;;;;22.05;11.32;;;14.60;99.90;;;;;;5074573;28;20489;-90
2022/07/30 04:34:36;;;;;;;73.40;13.13;;;14.70;99.90;;;;;;5092837;28;20093;-86
2022/07/30 04:37:01;;;;;;;92.55;13.85;;;14.70;99.90;;;;;;5074656;28;20044;-87
2022/07/30 04:39:27;;;;;;;110.50;13.27;;;14.70;99.90;;;;;;5092353;28;20048;-86
2022/07/30 04:41:53;;;;;;;186.90;16.75;;;14.80;99.90;;;;;;5092653;28;20054;-86
2022/07/30 04:44:38;;;;;;;162.65;16.05;;;14.80;99.90;;;;;;5092758;28;20059;-88
2022/07/30 04:47:04;;;;;;;133.30;17.77;;;14.80;99.90;;;;;;5074296;28;20482;-88
2022/07/30 04:49:31;;;;;;;59.92;12.50;;;14.90;99.90;;;;;;5092440;28;20127;-86
2022/07/30 04:51:58;;;;;;;67.20;11.68;;;14.90;99.90;;;;;;5075012;28;20499;-86
2022/07/30 04:54:24;;;;;;;26.45;8.40;;;15.00;99.90;;;;;;5092676;28;20055;-86
2022/07/30 04:56:51;;;;;;;55.67;11.45;;;15.10;99.90;;;;;;5058174;28;20066;-86
2022/07/30 04:59:18;;;;;;;69.68;10.73;;;15.10;99.90;;;;;;5074869;28;20048;-86
2022/07/30 05:02:05;;;;;;;92.97;12.13;;;15.20;99.90;;;;;;5092472;28;20394;-86
2022/07/30 05:04:32;;;;;;;94.20;13.30;;;15.20;99.90;;;;;;5077532;28;20055;-86
2022/07/30 05:07:00;;;;;;;58.03;11.98;;;15.30;99.90;;;;;;5096289;28;20052;-87
2022/07/30 05:09:30;;;;;;;31.60;11.25;;;15.30;99.90;;;;;;5096280;28;20056;-86
2022/07/30 05:11:56;;;;;;;39.92;13.27;;;15.40;99.90;;;;;;5095902;28;20054;-87
2022/07/30 05:14:40;;;;;;;88.60;15.35;;;15.50;99.90;;;;;;5077278;28;20131;-86
2022/07/30 05:17:06;;;;;;;28.13;13.43;;;15.50;99.90;;;;;;5078281;28;20166;-87
2022/07/30 05:19:32;;;;;;;27.58;11.68;;;15.60;99.90;;;;;;5078441;28;20139;-86
2022/07/30 05:21:58;;;;;;;77.38;14.15;;;15.70;99.90;;;;;;5078104;28;20492;-86
2022/07/30 05:24:23;;;;;;;9.95;8.80;;;15.70;99.90;;;;;;5095736;28;20047;-87
2022/07/30 05:26:49;;;;;;;53.08;14.00;;;15.80;99.90;;;;;;5095692;28;20048;-86
2022/07/30 05:29:15;;;;;;;85.57;13.23;;;15.80;99.90;;;;;;5078178;28;20048;-87
2022/07/30 05:31:59;;;;;;;70.82;16.52;;;15.90;99.90;;;;;;5095868;28;20044;-87
2022/07/30 05:34:24;;;;;;;44.90;12.98;;;16.00;99.90;;;;;;5095707;28;20448;-87
2022/07/30 05:36:50;;;;;;;42.35;12.10;;;16.00;99.90;;;;;;5077682;28;20135;-86
2022/07/30 05:39:16;;;;;;;31.05;13.88;;;16.10;99.90;;;;;;5095440;28;20051;-87
2022/07/30 05:41:41;;;;;;;86.03;13.68;;;16.20;99.90;;;;;;5095756;28;20357;-86
2022/07/30 05:44:07;;;;;;;66.88;12.50;;;16.20;99.90;;;;;;5095452;28;20051;-86
2022/07/30 05:46:33;;;;;;;26.27;13.73;;;16.30;99.90;;;;;;5095830;28;20047;-87
2022/07/30 05:48:59;;;;;;;58.97;12.43;;;16.40;99.90;;;;;;5095652;28;20052;-87
2022/07/30 05:51:24;;;;;;;58.53;14.07;;;16.50;99.90;;;;;;5095273;28;20044;-87
2022/07/30 05:53:50;;;;;;;18.42;11.13;;;16.60;99.90;;;;;;5076972;28;20075;-87
2022/07/30 05:56:16;;;;;;;28.02;11.35;;;16.60;99.90;;;;;;5077265;28;20066;-88
2022/07/30 05:58:42;;;;;;;11.73;9.73;;;16.70;99.90;;;;;;5077242;28;20134;-87
2022/07/30 06:01:08;;;;;;;27.98;11.38;;;16.80;99.90;;;;;;5095191;28;20047;-86
2022/07/30 06:03:33;;;;;;;22.25;10.13;;;16.80;99.90;;;;;;5077252;28;20051;-87
2022/07/30 06:06:01;;;;;;;25.52;12.63;;;16.80;99.90;;;;;;5077588;28;20048;-87
2022/07/30 06:08:26;;;;;;;35.70;11.07;;;16.90;99.90;;;;;;5094916;28;20055;-86
2022/07/30 06:10:52;;;;;;;30.83;11.40;;;16.90;99.90;;;;;;5094652;28;20051;-87
2022/07/30 06:13:18;;;;;;;8.88;7.13;;;16.80;99.90;;;;;;5094798;28;20508;-87
2022/07/30 06:15:43;;;;;;;9.90;7.53;;;16.80;99.90;;;;;;5075959;28;20051;-87
2022/07/30 06:18:09;;;;;;;24.45;11.38;;;17.00;99.90;;;;;;5043785;28;20067;-91
2022/07/30 06:20:35;;;;;;;12.00;8.30;;;17.10;99.90;;;;;;5076615;28;20224;-88
2022/07/30 06:23:00;;;;;;;31.15;12.02;;;17.10;99.90;;;;;;5077066;28;20189;-86
2022/07/30 06:25:26;;;;;;;23.17;10.60;;;17.20;99.90;;;;;;5094716;28;20048;-88
2022/07/30 06:27:52;;;;;;;35.40;12.30;;;17.20;99.90;;;;;;5094875;28;20051;-87
2022/07/30 06:30:17;;;;;;;31.60;11.38;;;17.30;99.90;;;;;;5076177;28;20043;-83
2022/07/30 06:32:44;;;;;;;23.38;12.50;;;17.30;99.90;;;;;;5094565;28;20090;-87
2022/07/30 06:35:10;;;;;;;33.75;11.68;;;17.30;99.90;;;;;;5060282;28;20048;-87
2022/07/30 06:37:35;;;;;;;8.98;7.40;;;17.30;99.90;;;;;;5076540;28;20059;-88
2022/07/30 06:40:01;;;;;;;21.42;11.48;;;17.50;99.90;;;;;;5076501;28;20071;-87
2022/07/30 06:42:27;;;;;;;15.45;11.38;;;17.60;99.90;;;;;;5076611;28;20083;-87
2022/07/30 06:44:53;;;;;;;20.60;12.30;;;17.70;99.90;;;;;;5094220;28;20090;-87
2022/07/30 06:47:24;;;;;;;15.13;12.32;;;17.80;99.90;;;;;;5094240;28;20442;-86
2022/07/30 06:49:51;;;;;;;16.70;11.60;;;17.80;99.90;;;;;;5094444;28;20046;-87
2022/07/30 06:52:17;;;;;;;19.48;14.07;;;17.90;99.90;;;;;;5076107;28;20055;-87
2022/07/30 06:54:42;;;;;;;11.50;9.93;;;17.90;99.90;;;;;;5094407;28;20073;-87
2022/07/30 06:57:08;;;;;;;16.70;10.60;;;18.00;99.90;;;;;;5093931;28;20108;-87
2022/07/30 06:59:33;;;;;;;18.27;12.07;;;18.00;99.90;;;;;;5094377;28;20047;-88
2022/07/30 07:01:59;;;;;;;19.20;13.45;;;18.10;99.90;;;;;;5093861;28;20056;-87
2022/07/30 07:04:25;;;;;;;11.48;8.75;;;18.20;99.90;;;;;;5094336;28;20390;-87
2022/07/30 07:06:50;;;;;;;15.35;11.45;;;18.40;99.90;;;;;;5094003;28;20040;-87
2022/07/30 07:09:16;;;;;;;15.48;9.68;;;18.50;99.90;;;;;;5074935;28;20044;-87
2022/07/30 07:11:44;;;;;;;16.15;10.43;;;18.60;99.90;;;;;;5075491;28;20036;-87
2022/07/30 07:14:10;;;;;;;16.90;10.93;;;18.80;99.90;;;;;;5075994;28;20052;-87
2022/07/30 07:16:35;;;;;;;13.77;9.32;;;18.80;99.90;;;;;;5093958;28;20052;-86
2022/07/30 07:19:01;;;;;;;18.83;9.40;;;18.80;99.90;;;;;;5094045;28;20044;-86
2022/07/30 07:21:27;;;;;;;19.20;9.13;;;18.90;99.90;;;;;;5076111;28;20044;-87
2022/07/30 07:23:52;;;;;;;16.25;8.98;;;19.00;99.90;;;;;;5093849;28;20048;-86
2022/07/30 07:26:18;;;;;;;15.38;9.38;;;19.20;99.90;;;;;;5093516;28;20052;-86
2022/07/30 07:28:53;;;;;;;19.35;9.48;;;19.30;99.90;;;;;;5075566;28;20411;-86
2022/07/30 07:31:19;;;;;;;14.70;9.13;;;19.40;99.90;;;;;;5093401;28;20087;-87
2022/07/30 07:33:46;;;;;;;16.30;8.88;;;19.50;99.90;;;;;;5093781;28;20079;-86
2022/07/30 07:36:12;;;;;;;14.52;7.93;;;19.40;99.90;;;;;;5093282;28;20481;-84
2022/07/30 07:38:38;;;;;;;9.30;6.88;;;19.30;99.90;;;;;;5093243;28;20131;-85
2022/07/30 07:41:04;;;;;;;10.25;6.07;;;19.60;99.90;;;;;;5093752;28;20448;-82
2022/07/30 07:43:31;;;;;;;14.85;6.43;;;20.10;99.90;;;;;;5093491;28;20500;-84
2022/07/30 07:45:57;;;;;;;10.70;6.00;;;20.50;99.90;;;;;;5075584;28;20048;-84
2022/07/30 07:48:23;;;;;;;8.32;5.25;;;21.00;99.90;;;;;;5075836;28;20059;-85
2022/07/30 07:50:48;;;;;;;10.80;5.43;;;21.70;99.90;;;;;;5075750;28;20044;-85
2022/07/30 07:53:14;;;;;;;14.02;5.32;;;21.90;99.90;;;;;;5058539;28;20543;-86
2022/07/30 07:55:40;;;;;;;15.85;5.60;;;21.80;99.90;;;;;;5075681;28;20080;-86
2022/07/30 07:58:05;;;;;;;9.93;4.22;;;21.30;99.90;;;;;;5075164;28;20572;-86
2022/07/30 08:00:31;;;;;;;8.23;4.00;;;21.30;99.90;;;;;;5076138;28;20477;-83
2022/07/30 08:02:57;;;;;;;9.32;3.20;;;21.90;99.90;;;;;;5074871;28;20070;-86
2022/07/30 08:05:22;;;;;;;11.57;4.07;;;22.60;99.90;;;;;;5092830;28;20048;-86
2022/07/30 08:07:49;;;;;;;9.70;3.50;;;23.30;99.90;;;;;;5092851;28;20052;-85
2022/07/30 08:10:15;;;;;;;7.75;3.28;;;23.80;99.90;;;;;;5075179;28;20044;-84
2022/07/30 08:12:41;;;;;;;10.60;3.72;;;24.10;99.90;;;;;;5092761;28;20108;-86
2022/07/30 08:15:25;;;;;;;9.20;3.55;;;23.70;99.90;;;;;;5092968;28;20198;-90
2022/07/30 08:17:50;;;;;;;6.97;3.10;;;23.60;99.90;;;;;;5058279;28;20359;-83
2022/07/30 08:20:21;;;;;;;9.70;3.50;;;24.40;99.90;;;;;;5093052;28;20135;-85
2022/07/30 08:22:46;;;;;;;8.02;2.80;;;25.40;99.90;;;;;;5059055;28;20048;-85
2022/07/30 08:25:12;;;;;;;8.13;2.70;;;26.00;99.90;;;;;;5075049;28;20090;-85
2022/07/30 08:27:38;;;;;;;7.70;2.83;;;26.40;99.90;;;;;;5075090;28;20046;-84
2022/07/30 08:30:05;;;;;;;7.07;2.30;;;26.80;96.80;;;;;;5092699;28;20051;-85
2022/07/30 08:32:32;;;;;;;10.70;2.75;;;26.50;97.20;;;;;;5075229;28;20113;-83
2022/07/30 08:34:57;;;;;;;5.38;2.20;;;25.90;99.90;;;;;;5093088;28;20056;-85
2022/07/30 08:37:23;;;;;;;7.00;2.70;;;26.10;99.90;;;;;;5092814;28;20063;-85
2022/07/30 08:39:49;;;;;;;10.30;2.65;;;26.90;94.80;;;;;;5079505;28;20048;-85
2022/07/30 08:42:15;;;;;;;6.63;2.22;;;28.00;86.10;;;;;;5096909;28;20051;-83
2022/07/30 08:44:45;;;;;;;6.63;3.03;;;27.80;80.20;;;;;;5078177;28;20074;-82
2022/07/30 08:47:14;;;;;;;11.35;3.05;;;26.50;91.50;;;;;;5096350;28;20482;-82
2022/07/30 08:49:41;;;;;;;5.45;2.40;;;26.10;95.90;;;;;;5096608;28;20561;-83
2022/07/30 08:52:07;;;;;;;7.75;2.85;;;26.80;95.90;;;;;;5077886;28;20044;-87
2022/07/30 08:54:34;;;;;;;6.18;2.70;;;27.60;90.20;;;;;;5096260;28;20040;-82
2022/07/30 08:57:00;;;;;;;6.35;2.42;;;28.60;74.70;;;;;;5095989;28;20381;-82
2022/07/30 08:59:26;;;;;;;5.20;2.33;;;28.80;68.60;;;;;;5077704;28;20489;-82
2022/07/30 09:01:52;;;;;;;7.50;2.80;;;28.10;73.00;;;;;;5095982;28;20462;-82
2022/07/30 09:04:17;;;;;;;11.88;3.10;;;27.40;80.60;;;;;;5060625;28;20083;-82
2022/07/30 09:06:44;;;;;;;8.23;2.55;;;27.90;72.70;;;;;;5095677;28;20055;-85
2022/07/30 09:09:10;;;;;;;9.05;2.47;;;28.70;70.90;;;;;;5077851;28;20044;-84
2022/07/30 09:11:36;;;;;;;6.03;2.55;;;29.80;64.20;;;;;;5095756;28;20113;-83
2022/07/30 09:14:09;;;;;;;7.32;2.60;;;30.30;61.20;;;;;;5095575;28;20442;-83
2022/07/30 09:16:34;;;;;;;12.27;3.28;;;29.60;60.30;;;;;;5095609;28;20485;-81
2022/07/30 09:19:14;;;;;;;6.97;2.85;;;28.20;65.50;;;;;;5077634;28;20051;-81
2022/07/30 09:21:40;;;;;;;6.47;3.20;;;27.60;67.00;;;;;;5077656;28;20055;-81
2022/07/30 09:24:08;;;;;;;10.50;2.92;;;28.30;66.70;;;;;;5095644;28;20365;-82
2022/07/30 09:26:56;;;;;;;9.02;2.60;;;28.80;64.00;;;;;;5095503;28;20412;-82
2022/07/30 09:29:24;;;;;;;8.27;2.90;;;29.60;64.00;;;;;;5095474;28;20054;-82
2022/07/30 09:31:53;;;;;;;8.38;2.65;;;30.20;59.70;;;;;;5095182;28;20087;-82
2022/07/30 09:34:25;;;;;;;7.82;2.50;;;30.40;58.60;;;;;;5094649;28;20051;-82
2022/07/30 09:36:50;;;;;;;6.18;2.22;;;30.30;57.20;;;;;;5076946;28;20056;-83
2022/07/30 09:39:30;;;;;;;5.55;2.30;;;29.60;60.70;;;;;;5078557;28;20058;-83
2022/07/30 09:41:57;;;;;;;6.93;1.98;;;30.10;60.30;;;;;;5095288;28;20139;-83
2022/07/30 09:44:24;;;;;;;6.75;2.13;;;30.80;58.10;;;;;;5095040;28;20477;-84
2022/07/30 09:46:50;;;;;;;5.95;2.35;;;31.30;56.10;;;;;;5077157;28;20102;-84
2022/07/30 09:49:24;;;;;;;10.77;2.50;;;31.80;55.20;;;;;;5095325;28;20052;-84
2022/07/30 09:51:50;;;;;;;6.82;2.25;;;32.30;53.90;;;;;;5077152;28;20134;-83
2022/07/30 09:54:16;;;;;;;8.15;2.55;;;32.70;52.10;;;;;;5077086;28;20037;-81
2022/07/30 09:56:44;;;;;;;8.35;2.35;;;31.70;52.60;;;;;;5095283;28;20040;-84
2022/07/30 09:59:30;;;;;;;4.75;2.10;;;30.30;55.20;;;;;;5060670;28;20044;-84
2022/07/30 10:01:56;;;;;;;6.32;2.13;;;30.00;57.90;;;;;;5095310;28;20127;-83
2022/07/30 10:04:31;;;;;;;8.98;2.30;;;30.60;56.80;;;;;;5076484;28;20507;-82
2022/07/30 10:06:58;;;;;;;6.45;1.98;;;31.60;54.30;;;;;;5094730;28;20493;-82
2022/07/30 10:09:34;;;;;;;6.35;2.30;;;31.80;51.80;;;;;;5077034;28;20087;-83
2022/07/30 10:12:02;;;;;;;9.05;2.40;;;30.50;52.10;;;;;;5094634;28;20044;-81
2022/07/30 10:14:32;;;;;;;5.07;2.28;;;29.80;56.10;;;;;;5094836;28;20056;-85
2022/07/30 10:16:58;;;;;;;6.17;2.10;;;30.30;55.90;;;;;;5060164;28;20139;-83
2022/07/30 10:19:24;;;;;;;6.90;2.13;;;31.30;54.50;;;;;;5094537;28;20051;-82
2022/07/30 10:21:52;;;;;;;7.40;2.70;;;32.20;52.20;;;;;;5094653;28;20040;-84
2022/07/30 10:24:18;;;;;;;6.35;2.45;;;32.10;51.70;;;;;;5059791;28;20130;-83
2022/07/30 10:26:46;;;;;;;8.70;2.90;;;30.80;52.90;;;;;;5076436;28;20043;-83
2022/07/30 10:29:14;;;;;;;5.57;2.13;;;30.00;54.20;;;;;;5076331;28;20102;-83
2022/07/30 10:31:40;;;;;;;11.82;2.85;;;30.50;55.60;;;;;;5094131;28;20058;-84
2022/07/30 10:34:06;;;;;;;7.00;2.55;;;31.50;52.40;;;;;;5094282;28;20201;-84
2022/07/30 10:36:34;;;;;;;7.30;2.50;;;32.30;52.00;;;;;;5094601;28;20044;-84
2022/07/30 10:39:00;;;;;;;7.63;3.58;;;33.10;51.20;;;;;;5094400;28;20040;-81
2022/07/30 10:41:44;;;;;;;9.00;3.10;;;32.50;50.60;;;;;;5075985;28;20413;-84
2022/07/30 10:44:29;;;;;;;6.30;3.13;;;31.00;52.30;;;;;;5076392;28;20048;-83
2022/07/30 10:47:06;;;;;;;6.13;2.70;;;30.50;54.40;;;;;;5076241;28;20140;-84
2022/07/30 10:49:32;;;;;;;6.15;1.90;;;31.30;54.30;;;;;;5093793;28;20520;-83
2022/07/30 10:51:59;;;;;;;8.63;2.20;;;31.70;51.70;;;;;;5093844;28;20092;-85
2022/07/30 10:54:33;;;;;;;6.90;2.00;;;31.60;53.20;;;;;;5093717;28;20044;-85
2022/07/30 10:57:19;;;;;;;5.82;2.47;;;32.40;52.40;;;;;;5075668;28;20059;-86
2022/07/30 10:59:54;;;;;;;5.97;2.13;;;33.50;51.60;;;;;;5093635;28;20073;-83
2022/07/30 11:02:22;;;;;;;6.60;2.15;;;34.00;46.40;;;;;;5092803;28;20052;-82
2022/07/30 11:04:48;;;;;;;5.28;1.83;;;32.00;49.10;;;;;;5075102;28;20568;-81
2022/07/30 11:07:26;;;;;;;4.50;2.10;;;30.40;52.90;;;;;;5075373;28;20099;-81
2022/07/30 11:09:57;;;;;;;7.55;1.95;;;30.30;52.40;;;;;;5075549;28;20134;-83
2022/07/30 11:12:40;;;;;;;5.05;1.58;;;30.80;53.30;;;;;;5093613;28;20154;-82
2022/07/30 11:15:08;;;;;;;7.30;1.95;;;31.70;52.00;;;;;;5093443;28;20056;-87
2022/07/30 11:18:10;;;;;;;3.35;1.48;;;32.40;50.10;;;;;;5093539;28;20080;-82
2022/07/30 11:20:36;;;;;;;2.72;1.50;;;33.30;49.60;;;;;;5093484;28;20054;-82
2022/07/30 11:23:22;;;;;;;4.90;1.90;;;33.80;47.40;;;;;;5093548;28;20048;-83
2022/07/30 11:25:48;;;;;;;4.90;1.50;;;33.00;46.30;;;;;;5093147;28;20094;-82
2022/07/30 11:28:41;;;;;;;5.40;1.67;;;31.70;49.60;;;;;;5093148;28;20052;-82
2022/07/30 11:31:25;;;;;;;7.10;1.70;;;30.70;50.50;;;;;;5075435;28;20051;-83
2022/07/30 11:33:51;;;;;;;5.45;1.67;;;30.30;51.90;;;;;;5075077;28;20130;-83
2022/07/30 11:36:17;;;;;;;5.32;1.88;;;30.60;51.30;;;;;;5093135;28;20435;-82
2022/07/30 11:38:54;;;;;;;4.25;1.50;;;31.30;51.70;;;;;;5075230;28;20427;-83
2022/07/30 11:41:20;;;;;;;4.90;1.60;;;32.10;49.50;;;;;;5092661;28;20473;-83
2022/07/30 11:43:45;;;;;;;4.00;1.50;;;32.80;50.00;;;;;;5075005;28;20136;-83
2022/07/30 11:46:22;;;;;;;4.28;1.55;;;33.40;49.10;;;;;;5075271;28;20048;-81
2022/07/30 11:48:58;;;;;;;5.50;1.70;;;33.80;45.40;;;;;;5074924;28;20090;-82
2022/07/30 11:51:24;;;;;;;3.95;1.50;;;33.80;44.10;;;;;;5092802;28;20048;-83
2022/07/30 11:54:04;;;;;;;5.57;1.52;;;33.80;45.70;;;;;;5074566;28;20044;-83
2022/07/30 11:56:33;;;;;;;5.28;1.60;;;34.20;45.70;;;;;;5071765;28;20574;-83
2022/07/30 11:59:06;;;;;;;4.80;1.60;;;34.30;44.30;;;;;;5075158;28;20090;-83
2022/07/30 12:01:33;;;;;;;3.95;1.48;;;34.20;45.20;;;;;;5092936;28;20047;-83
2022/07/30 12:04:03;;;;;;;7.03;1.85;;;34.10;45.30;;;;;;5092957;28;20047;-82
2022/07/30 12:06:30;;;;;;;3.15;1.20;;;33.70;44.80;;;;;;5092618;28;20102;-84
2022/07/30 12:08:57;;;;;;;2.65;1.42;;;33.20;46.00;;;;;;5092965;28;20052;-83
2022/07/30 12:11:23;;;;;;;2.65;1.30;;;33.00;46.30;;;;;;5074933;28;20059;-82
2022/07/30 12:14:00;;;;;;;4.07;1.50;;;32.80;45.40;;;;;;5078548;28;20044;-80
2022/07/30 12:16:27;;;;;;;5.22;1.20;;;32.20;45.40;;;;;;5061948;28;20048;-83
2022/07/30 12:18:52;;;;;;;3.67;1.40;;;31.60;47.90;;;;;;5096603;28;20043;-83
2022/07/30 12:21:23;;;;;;;4.43;1.52;;;31.10;49.50;;;;;;5097034;28;20048;-80
2022/07/30 12:23:58;;;;;;;4.97;1.60;;;31.10;48.80;;;;;;5096819;28;20080;-84
2022/07/30 12:26:28;;;;;;;3.13;1.63;;;31.10;47.80;;;;;;5061366;28;20516;-86
2022/07/30 12:28:59;;;;;;;6.10;1.80;;;31.00;47.40;;;;;;5096614;28;20114;-81
2022/07/30 12:31:26;;;;;;;2.42;1.30;;;30.60;48.60;;;;;;5078391;28;20047;-83
2022/07/30 12:33:52;;;;;;;3.88;1.40;;;30.50;48.30;;;;;;5096397;28;20489;-82
2022/07/30 12:36:29;;;;;;;3.83;1.35;;;30.30;47.40;;;;;;5096550;28;20048;-82
2022/07/30 12:38:57;;;;;;;4.45;1.40;;;30.30;47.60;;;;;;5061615;28;20612;-83
2022/07/30 12:41:42;;;;;;;3.50;1.30;;;30.30;46.30;;;;;;5078266;28;20397;-83
2022/07/30 12:44:07;;;;;;;3.70;1.40;;;30.10;46.80;;;;;;5061711;28;20056;-82
2022/07/30 12:46:38;;;;;;;3.65;1.40;;;29.60;47.40;;;;;;5078234;28;20497;-83
2022/07/30 12:49:05;;;;;;;4.38;1.20;;;29.20;48.40;;;;;;5078288;28;20385;-82